sensor_id;sensor_type;location;lat;lon;timestamp;P1;durP1;ratioP1;P2;durP2;ratioP2
35679;SDS011;21803;53.586;10.040;2023-06-26T04:02:25;3.30;;;2.90;;
35679;SDS011;21803;53.586;10.040;2023-06-26T04:04:51;3.22;;;2.92;;
35679;SDS011;21803;53.586;10.040;2023-06-26T04:07:17;3.22;;;2.90;;
35679;SDS011;21803;53.586;10.040;2023-06-26T04:09:43;3.13;;;2.83;;
35679;SDS011;21803;53.586;10.040;2023-06-26T04:12:08;3.47;;;3.00;;
35679;SDS011;21803;53.586;10.040;2023-06-26T04:14:34;3.25;;;2.95;;
35679;SDS011;21803;53.586;10.040;2023-06-26T04:17:00;3.17;;;2.88;;
35679;SDS011;21803;53.586;10.040;2023-06-26T04:19:29;2.78;;;2.47;;
35679;SDS011;21803;53.586;10.040;2023-06-26T04:21:55;3.28;;;2.97;;
35679;SDS011;21803;53.586;10.040;2023-06-26T04:24:21;3.10;;;2.80;;
35679;SDS011;21803;53.586;10.040;2023-06-26T04:26:46;3.42;;;3.10;;
35679;SDS011;21803;53.586;10.040;2023-06-26T04:29:12;3.30;;;2.67;;
35679;SDS011;21803;53.586;10.040;2023-06-26T04:31:38;3.28;;;2.88;;
35679;SDS011;21803;53.586;10.040;2023-06-26T04:34:04;3.53;;;3.22;;
35679;SDS011;21803;53.586;10.040;2023-06-26T04:36:29;3.05;;;2.75;;
35679;SDS011;21803;53.586;10.040;2023-06-26T04:38:56;2.78;;;2.45;;
35679;SDS011;21803;53.586;10.040;2023-06-26T04:41:22;3.60;;;3.20;;
35679;SDS011;21803;53.586;10.040;2023-06-26T04:43:47;2.85;;;2.65;;
35679;SDS011;21803;53.586;10.040;2023-06-26T04:46:13;2.97;;;2.67;;
35679;SDS011;21803;53.586;10.040;2023-06-26T04:48:38;2.97;;;2.65;;
35679;SDS011;21803;53.586;10.040;2023-06-26T04:51:04;3.15;;;2.85;;
35679;SDS011;21803;53.586;10.040;2023-06-26T04:53:29;3.35;;;2.85;;
35679;SDS011;21803;53.586;10.040;2023-06-26T04:55:55;3.10;;;2.80;;
35679;SDS011;21803;53.586;10.040;2023-06-26T04:58:21;3.10;;;2.80;;
35679;SDS011;21803;53.586;10.040;2023-06-26T05:00:46;3.00;;;2.70;;
35679;SDS011;21803;53.586;10.040;2023-06-26T05:03:12;2.90;;;2.60;;
35679;SDS011;21803;53.586;10.040;2023-06-26T05:05:39;3.00;;;2.70;;
35679;SDS011;21803;53.586;10.040;2023-06-26T05:08:17;3.10;;;2.72;;
35679;SDS011;21803;53.586;10.040;2023-06-26T05:10:47;3.08;;;2.78;;
35679;SDS011;21803;53.586;10.040;2023-06-26T05:13:13;3.38;;;3.08;;
35679;SDS011;21803;53.586;10.040;2023-06-26T05:15:42;2.88;;;2.58;;
35679;SDS011;21803;53.586;10.040;2023-06-26T05:18:08;2.95;;;2.67;;
35679;SDS011;21803;53.586;10.040;2023-06-26T05:20:34;3.10;;;2.80;;
35679;SDS011;21803;53.586;10.040;2023-06-26T05:23:04;3.10;;;2.80;;
35679;SDS011;21803;53.586;10.040;2023-06-26T05:25:30;2.88;;;2.67;;
35679;SDS011;21803;53.586;10.040;2023-06-26T05:27:57;3.08;;;2.50;;
35679;SDS011;21803;53.586;10.040;2023-06-26T05:30:23;3.13;;;2.83;;
35679;SDS011;21803;53.586;10.040;2023-06-26T05:32:55;5.18;;;2.90;;
35679;SDS011;21803;53.586;10.040;2023-06-26T05:35:24;3.13;;;2.83;;
35679;SDS011;21803;53.586;10.040;2023-06-26T05:37:52;3.00;;;2.70;;
35679;SDS011;21803;53.586;10.040;2023-06-26T05:40:20;2.90;;;2.60;;
35679;SDS011;21803;53.586;10.040;2023-06-26T05:42:46;2.83;;;2.55;;
35679;SDS011;21803;53.586;10.040;2023-06-26T05:45:12;3.08;;;2.78;;
35679;SDS011;21803;53.586;10.040;2023-06-26T05:47:37;3.03;;;2.72;;
35679;SDS011;21803;53.586;10.040;2023-06-26T05:50:03;3.10;;;2.80;;
35679;SDS011;21803;53.586;10.040;2023-06-26T05:52:29;3.35;;;3.05;;
35679;SDS011;21803;53.586;10.040;2023-06-26T05:54:55;3.20;;;2.70;;
35679;SDS011;21803;53.586;10.040;2023-06-26T05:57:24;2.67;;;2.40;;
35679;SDS011;21803;53.586;10.040;2023-06-26T05:59:54;2.72;;;2.53;;
35679;SDS011;21803;53.586;10.040;2023-06-26T06:02:20;3.25;;;2.95;;
35679;SDS011;21803;53.586;10.040;2023-06-26T06:04:46;3.15;;;2.78;;
35679;SDS011;21803;53.586;10.040;2023-06-26T06:07:11;3.20;;;2.80;;
35679;SDS011;21803;53.586;10.040;2023-06-26T06:09:37;5.50;;;2.83;;
35679;SDS011;21803;53.586;10.040;2023-06-26T06:12:06;3.17;;;2.83;;
35679;SDS011;21803;53.586;10.040;2023-06-26T06:14:33;2.92;;;2.63;;
35679;SDS011;21803;53.586;10.040;2023-06-26T06:16:59;2.78;;;2.58;;
35679;SDS011;21803;53.586;10.040;2023-06-26T06:19:25;2.95;;;2.67;;
35679;SDS011;21803;53.586;10.040;2023-06-26T06:21:50;3.03;;;2.72;;
35679;SDS011;21803;53.586;10.040;2023-06-26T06:24:16;2.97;;;2.55;;
35679;SDS011;21803;53.586;10.040;2023-06-26T06:26:42;2.72;;;2.53;;
35679;SDS011;21803;53.586;10.040;2023-06-26T06:29:08;2.95;;;2.65;;
35679;SDS011;21803;53.586;10.040;2023-06-26T06:31:33;2.60;;;2.40;;
35679;SDS011;21803;53.586;10.040;2023-06-26T06:33:59;3.17;;;2.88;;
35679;SDS011;21803;53.586;10.040;2023-06-26T06:36:24;2.80;;;2.50;;
35679;SDS011;21803;53.586;10.040;2023-06-26T06:38:50;2.67;;;2.40;;
35679;SDS011;21803;53.586;10.040;2023-06-26T06:41:16;2.88;;;2.53;;
35679;SDS011;21803;53.586;10.040;2023-06-26T06:43:41;3.10;;;2.80;;
35679;SDS011;21803;53.586;10.040;2023-06-26T06:46:07;3.00;;;2.70;;
35679;SDS011;21803;53.586;10.040;2023-06-26T06:48:33;2.45;;;2.25;;
35679;SDS011;21803;53.586;10.040;2023-06-26T06:50:59;2.75;;;2.55;;
35679;SDS011;21803;53.586;10.040;2023-06-26T06:53:25;3.13;;;2.83;;
35679;SDS011;21803;53.586;10.040;2023-06-26T06:55:50;3.47;;;2.38;;
35679;SDS011;21803;53.586;10.040;2023-06-26T06:58:16;3.75;;;2.50;;
35679;SDS011;21803;53.586;10.040;2023-06-26T07:00:43;3.35;;;3.05;;
35679;SDS011;21803;53.586;10.040;2023-06-26T07:03:09;3.38;;;2.97;;
35679;SDS011;21803;53.586;10.040;2023-06-26T07:05:35;3.05;;;2.78;;
35679;SDS011;21803;53.586;10.040;2023-06-26T07:08:01;3.13;;;2.70;;
35679;SDS011;21803;53.586;10.040;2023-06-26T07:10:27;2.80;;;2.60;;
35679;SDS011;21803;53.586;10.040;2023-06-26T07:12:53;2.72;;;2.50;;
35679;SDS011;21803;53.586;10.040;2023-06-26T07:15:18;2.72;;;2.40;;
35679;SDS011;21803;53.586;10.040;2023-06-26T07:17:44;3.35;;;2.72;;
35679;SDS011;21803;53.586;10.040;2023-06-26T07:20:09;2.72;;;2.42;;
35679;SDS011;21803;53.586;10.040;2023-06-26T07:22:40;2.70;;;2.50;;
35679;SDS011;21803;53.586;10.040;2023-06-26T07:25:06;3.00;;;2.70;;
35679;SDS011;21803;53.586;10.040;2023-06-26T07:27:34;2.72;;;2.50;;
35679;SDS011;21803;53.586;10.040;2023-06-26T07:30:00;2.63;;;2.40;;
35679;SDS011;21803;53.586;10.040;2023-06-26T07:32:26;3.03;;;2.45;;
35679;SDS011;21803;53.586;10.040;2023-06-26T07:34:51;3.30;;;2.55;;
35679;SDS011;21803;53.586;10.040;2023-06-26T07:37:17;2.65;;;2.45;;
35679;SDS011;21803;53.586;10.040;2023-06-26T07:39:42;2.50;;;2.30;;
35679;SDS011;21803;53.586;10.040;2023-06-26T07:42:07;2.90;;;2.60;;
35679;SDS011;21803;53.586;10.040;2023-06-26T07:44:33;2.45;;;2.25;;
35679;SDS011;21803;53.586;10.040;2023-06-26T07:46:59;2.58;;;2.38;;
35679;SDS011;21803;53.586;10.040;2023-06-26T07:49:24;3.03;;;2.60;;
35679;SDS011;21803;53.586;10.040;2023-06-26T07:51:50;2.63;;;2.40;;
35679;SDS011;21803;53.586;10.040;2023-06-26T07:54:15;3.80;;;2.60;;
35679;SDS011;21803;53.586;10.040;2023-06-26T07:56:56;2.72;;;2.50;;
35679;SDS011;21803;53.586;10.040;2023-06-26T07:59:24;3.33;;;2.88;;
35679;SDS011;21803;53.586;10.040;2023-06-26T08:01:51;3.35;;;2.80;;
35679;SDS011;21803;53.586;10.040;2023-06-26T08:04:20;3.25;;;2.78;;
35679;SDS011;21803;53.586;10.040;2023-06-26T08:06:48;4.00;;;3.08;;
35679;SDS011;21803;53.586;10.040;2023-06-26T08:09:15;2.97;;;2.67;;
35679;SDS011;21803;53.586;10.040;2023-06-26T08:11:40;3.25;;;2.95;;
35679;SDS011;21803;53.586;10.040;2023-06-26T08:14:06;3.60;;;2.95;;
35679;SDS011;21803;53.586;10.040;2023-06-26T08:16:32;4.40;;;3.53;;
35679;SDS011;21803;53.586;10.040;2023-06-26T08:18:57;4.10;;;3.70;;
35679;SDS011;21803;53.586;10.040;2023-06-26T08:21:23;4.20;;;3.35;;
35679;SDS011;21803;53.586;10.040;2023-06-26T08:23:48;3.75;;;3.42;;
35679;SDS011;21803;53.586;10.040;2023-06-26T08:26:14;4.85;;;3.45;;
35679;SDS011;21803;53.586;10.040;2023-06-26T08:28:39;4.05;;;3.50;;
35679;SDS011;21803;53.586;10.040;2023-06-26T08:31:05;3.83;;;3.45;;
35679;SDS011;21803;53.586;10.040;2023-06-26T08:33:30;4.88;;;3.80;;
35679;SDS011;21803;53.586;10.040;2023-06-26T08:35:56;3.70;;;3.40;;
35679;SDS011;21803;53.586;10.040;2023-06-26T08:38:21;5.90;;;3.85;;
35679;SDS011;21803;53.586;10.040;2023-06-26T08:40:47;4.35;;;3.13;;
35679;SDS011;21803;53.586;10.040;2023-06-26T08:43:13;5.45;;;3.75;;
35679;SDS011;21803;53.586;10.040;2023-06-26T08:45:38;4.25;;;3.85;;
35679;SDS011;21803;53.586;10.040;2023-06-26T08:48:04;3.78;;;3.38;;
35679;SDS011;21803;53.586;10.040;2023-06-26T08:50:33;4.57;;;3.88;;
35679;SDS011;21803;53.586;10.040;2023-06-26T08:55:43;4.03;;;3.63;;
35679;SDS011;21803;53.586;10.040;2023-06-26T08:58:10;4.00;;;3.60;;
35679;SDS011;21803;53.586;10.040;2023-06-26T09:00:37;4.68;;;3.83;;
35679;SDS011;21803;53.586;10.040;2023-06-26T09:03:03;4.32;;;3.70;;
35679;SDS011;21803;53.586;10.040;2023-06-26T09:05:29;4.07;;;3.67;;
35679;SDS011;21803;53.586;10.040;2023-06-26T09:07:57;4.15;;;3.75;;
35679;SDS011;21803;53.586;10.040;2023-06-26T09:10:23;3.88;;;3.50;;
35679;SDS011;21803;53.586;10.040;2023-06-26T09:12:49;4.38;;;3.55;;
35679;SDS011;21803;53.586;10.040;2023-06-26T09:15:15;4.88;;;3.97;;
35679;SDS011;21803;53.586;10.040;2023-06-26T09:17:41;4.43;;;4.03;;
35679;SDS011;21803;53.586;10.040;2023-06-26T09:20:08;4.20;;;3.70;;
35679;SDS011;21803;53.586;10.040;2023-06-26T09:22:40;5.00;;;3.58;;
35679;SDS011;21803;53.586;10.040;2023-06-26T09:25:07;4.07;;;3.63;;
35679;SDS011;21803;53.586;10.040;2023-06-26T09:27:32;4.25;;;3.80;;
35679;SDS011;21803;53.586;10.040;2023-06-26T09:29:59;4.85;;;4.07;;
35679;SDS011;21803;53.586;10.040;2023-06-26T09:32:24;4.18;;;3.78;;
35679;SDS011;21803;53.586;10.040;2023-06-26T09:34:51;4.55;;;3.53;;
35679;SDS011;21803;53.586;10.040;2023-06-26T09:37:18;4.70;;;3.63;;
35679;SDS011;21803;53.586;10.040;2023-06-26T09:39:44;4.60;;;3.70;;
35679;SDS011;21803;53.586;10.040;2023-06-26T09:42:10;4.82;;;3.50;;
35679;SDS011;21803;53.586;10.040;2023-06-26T09:44:43;3.97;;;3.47;;
35679;SDS011;21803;53.586;10.040;2023-06-26T09:47:12;4.28;;;3.58;;
35679;SDS011;21803;53.586;10.040;2023-06-26T09:49:42;6.30;;;3.47;;
35679;SDS011;21803;53.586;10.040;2023-06-26T09:52:08;4.75;;;3.95;;
35679;SDS011;21803;53.586;10.040;2023-06-26T09:54:34;3.85;;;3.35;;
35679;SDS011;21803;53.586;10.040;2023-06-26T09:57:09;7.32;;;3.80;;
35679;SDS011;21803;53.586;10.040;2023-06-26T09:59:36;4.13;;;3.30;;
35679;SDS011;21803;53.586;10.040;2023-06-26T10:02:02;4.63;;;3.63;;
35679;SDS011;21803;53.586;10.040;2023-06-26T10:04:27;4.35;;;3.53;;
35679;SDS011;21803;53.586;10.040;2023-06-26T10:06:56;3.53;;;3.22;;
35679;SDS011;21803;53.586;10.040;2023-06-26T10:09:23;4.38;;;3.50;;
35679;SDS011;21803;53.586;10.040;2023-06-26T10:11:57;3.58;;;3.28;;
35679;SDS011;21803;53.586;10.040;2023-06-26T10:14:26;4.65;;;3.22;;
35679;SDS011;21803;53.586;10.040;2023-06-26T10:16:52;3.40;;;3.05;;
35679;SDS011;21803;53.586;10.040;2023-06-26T10:19:26;3.42;;;3.13;;
35679;SDS011;21803;53.586;10.040;2023-06-26T10:21:53;5.10;;;3.30;;
35679;SDS011;21803;53.586;10.040;2023-06-26T10:24:20;3.45;;;3.15;;
35679;SDS011;21803;53.586;10.040;2023-06-26T10:26:47;4.50;;;3.10;;
35679;SDS011;21803;53.586;10.040;2023-06-26T10:29:16;3.75;;;3.30;;
35679;SDS011;21803;53.586;10.040;2023-06-26T10:31:44;3.10;;;2.80;;
35679;SDS011;21803;53.586;10.040;2023-06-26T10:34:13;3.30;;;3.00;;
35679;SDS011;21803;53.586;10.040;2023-06-26T10:36:39;4.60;;;3.30;;
35679;SDS011;21803;53.586;10.040;2023-06-26T10:39:06;3.28;;;2.97;;
35679;SDS011;21803;53.586;10.040;2023-06-26T10:41:39;3.95;;;3.35;;
35679;SDS011;21803;53.586;10.040;2023-06-26T10:44:09;4.20;;;2.97;;
35679;SDS011;21803;53.586;10.040;2023-06-26T10:49:18;3.75;;;3.30;;
35679;SDS011;21803;53.586;10.040;2023-06-26T10:52:04;4.07;;;3.10;;
35679;SDS011;21803;53.586;10.040;2023-06-26T10:54:31;3.05;;;2.72;;
35679;SDS011;21803;53.586;10.040;2023-06-26T10:56:57;3.75;;;2.97;;
35679;SDS011;21803;53.586;10.040;2023-06-26T10:59:24;3.20;;;2.90;;
35679;SDS011;21803;53.586;10.040;2023-06-26T11:01:57;3.50;;;3.15;;
35679;SDS011;21803;53.586;10.040;2023-06-26T11:07:21;3.72;;;3.20;;
35679;SDS011;21803;53.586;10.040;2023-06-26T11:09:58;3.40;;;2.92;;
35679;SDS011;21803;53.586;10.040;2023-06-26T11:12:42;3.35;;;2.92;;
35679;SDS011;21803;53.586;10.040;2023-06-26T11:15:09;3.22;;;2.92;;
35679;SDS011;21803;53.586;10.040;2023-06-26T11:17:36;3.22;;;2.92;;
35679;SDS011;21803;53.586;10.040;2023-06-26T11:20:03;3.20;;;2.90;;
35679;SDS011;21803;53.586;10.040;2023-06-26T11:22:30;3.20;;;2.85;;
35679;SDS011;21803;53.586;10.040;2023-06-26T11:24:59;3.05;;;2.75;;
35679;SDS011;21803;53.586;10.040;2023-06-26T11:27:29;3.13;;;2.83;;
35679;SDS011;21803;53.586;10.040;2023-06-26T11:30:09;3.03;;;2.67;;
35679;SDS011;21803;53.586;10.040;2023-06-26T11:32:39;2.97;;;2.65;;
35679;SDS011;21803;53.586;10.040;2023-06-26T11:35:04;3.45;;;3.00;;
35679;SDS011;21803;53.586;10.040;2023-06-26T11:37:31;3.83;;;2.90;;
35679;SDS011;21803;53.586;10.040;2023-06-26T11:39:57;3.30;;;2.90;;
35679;SDS011;21803;53.586;10.040;2023-06-26T11:42:23;3.40;;;3.10;;
35679;SDS011;21803;53.586;10.040;2023-06-26T11:44:49;2.95;;;2.65;;
35679;SDS011;21803;53.586;10.040;2023-06-26T11:47:19;2.83;;;2.50;;
35679;SDS011;21803;53.586;10.040;2023-06-26T11:49:46;4.32;;;2.72;;
35679;SDS011;21803;53.586;10.040;2023-06-26T11:52:12;4.35;;;2.90;;
35679;SDS011;21803;53.586;10.040;2023-06-26T11:54:41;3.20;;;2.70;;
35679;SDS011;21803;53.586;10.040;2023-06-26T11:57:07;3.15;;;2.85;;
35679;SDS011;21803;53.586;10.040;2023-06-26T11:59:34;2.92;;;2.63;;
35679;SDS011;21803;53.586;10.040;2023-06-26T12:02:04;3.55;;;2.88;;
35679;SDS011;21803;53.586;10.040;2023-06-26T12:04:31;3.33;;;2.80;;
35679;SDS011;21803;53.586;10.040;2023-06-26T12:06:56;3.05;;;2.75;;
35679;SDS011;21803;53.586;10.040;2023-06-26T12:09:23;3.25;;;2.60;;
35679;SDS011;21803;53.586;10.040;2023-06-26T12:11:52;4.25;;;2.80;;
35679;SDS011;21803;53.586;10.040;2023-06-26T12:14:20;2.50;;;2.30;;
35679;SDS011;21803;53.586;10.040;2023-06-26T12:16:47;3.50;;;3.00;;
35679;SDS011;21803;53.586;10.040;2023-06-26T12:19:12;3.03;;;2.55;;
35679;SDS011;21803;53.586;10.040;2023-06-26T12:24:15;3.10;;;2.80;;
35679;SDS011;21803;53.586;10.040;2023-06-26T12:26:45;3.10;;;2.70;;
35679;SDS011;21803;53.586;10.040;2023-06-26T12:29:13;2.92;;;2.53;;
35679;SDS011;21803;53.586;10.040;2023-06-26T12:31:43;3.60;;;2.70;;
35679;SDS011;21803;53.586;10.040;2023-06-26T12:34:11;2.97;;;2.53;;
35679;SDS011;21803;53.586;10.040;2023-06-26T12:36:40;3.00;;;2.70;;
35679;SDS011;21803;53.586;10.040;2023-06-26T12:39:08;3.42;;;2.60;;
35679;SDS011;21803;53.586;10.040;2023-06-26T12:41:36;3.00;;;2.58;;
35679;SDS011;21803;53.586;10.040;2023-06-26T12:44:21;2.60;;;2.40;;
35679;SDS011;21803;53.586;10.040;2023-06-26T12:46:54;3.33;;;2.50;;
35679;SDS011;21803;53.586;10.040;2023-06-26T12:49:36;2.65;;;2.38;;
35679;SDS011;21803;53.586;10.040;2023-06-26T12:52:03;2.90;;;2.40;;
35679;SDS011;21803;53.586;10.040;2023-06-26T12:54:36;2.88;;;2.45;;
35679;SDS011;21803;53.586;10.040;2023-06-26T12:57:04;2.97;;;2.58;;
35679;SDS011;21803;53.586;10.040;2023-06-26T12:59:30;2.50;;;2.30;;
35679;SDS011;21803;53.586;10.040;2023-06-26T13:02:00;2.53;;;2.33;;
35679;SDS011;21803;53.586;10.040;2023-06-26T13:04:26;2.53;;;2.22;;
35679;SDS011;21803;53.586;10.040;2023-06-26T13:06:53;2.50;;;2.30;;
35679;SDS011;21803;53.586;10.040;2023-06-26T13:09:22;2.88;;;2.25;;
35679;SDS011;21803;53.586;10.040;2023-06-26T13:11:48;2.75;;;2.35;;
35679;SDS011;21803;53.586;10.040;2023-06-26T13:14:14;2.30;;;2.10;;
35679;SDS011;21803;53.586;10.040;2023-06-26T13:16:40;3.75;;;2.63;;
35679;SDS011;21803;53.586;10.040;2023-06-26T13:19:06;4.15;;;2.75;;
35679;SDS011;21803;53.586;10.040;2023-06-26T13:21:32;2.53;;;2.28;;
35679;SDS011;21803;53.586;10.040;2023-06-26T13:23:58;3.60;;;2.50;;
35679;SDS011;21803;53.586;10.040;2023-06-26T13:26:24;3.03;;;2.17;;
35679;SDS011;21803;53.586;10.040;2023-06-26T13:28:51;2.72;;;2.10;;
35679;SDS011;21803;53.586;10.040;2023-06-26T13:31:17;2.80;;;2.30;;
35679;SDS011;21803;53.586;10.040;2023-06-26T13:33:43;4.93;;;2.03;;
35679;SDS011;21803;53.586;10.040;2023-06-26T13:36:10;3.03;;;2.20;;
35679;SDS011;21803;53.586;10.040;2023-06-26T13:38:36;2.38;;;1.90;;
35679;SDS011;21803;53.586;10.040;2023-06-26T13:41:02;7.60;;;2.30;;
35679;SDS011;21803;53.586;10.040;2023-06-26T13:43:28;3.85;;;2.42;;
35679;SDS011;21803;53.586;10.040;2023-06-26T13:45:54;2.40;;;2.20;;
35679;SDS011;21803;53.586;10.040;2023-06-26T13:48:20;2.13;;;1.92;;
35679;SDS011;21803;53.586;10.040;2023-06-26T13:50:46;4.05;;;2.15;;
35679;SDS011;21803;53.586;10.040;2023-06-26T13:53:12;2.17;;;1.85;;
35679;SDS011;21803;53.586;10.040;2023-06-26T13:55:38;3.80;;;1.92;;
35679;SDS011;21803;53.586;10.040;2023-06-26T13:58:05;3.03;;;1.90;;
35679;SDS011;21803;53.586;10.040;2023-06-26T14:00:31;4.03;;;2.10;;
35679;SDS011;21803;53.586;10.040;2023-06-26T14:02:58;3.95;;;2.13;;
35679;SDS011;21803;53.586;10.040;2023-06-26T14:05:24;2.53;;;2.00;;
35679;SDS011;21803;53.586;10.040;2023-06-26T14:07:50;3.05;;;1.85;;
35679;SDS011;21803;53.586;10.040;2023-06-26T14:10:15;2.25;;;1.80;;
35679;SDS011;21803;53.586;10.040;2023-06-26T14:12:41;2.97;;;1.90;;
35679;SDS011;21803;53.586;10.040;2023-06-26T14:15:06;2.92;;;1.90;;
35679;SDS011;21803;53.586;10.040;2023-06-26T14:17:32;2.90;;;1.67;;
35679;SDS011;21803;53.586;10.040;2023-06-26T14:19:58;3.05;;;1.80;;
35679;SDS011;21803;53.586;10.040;2023-06-26T14:22:24;4.57;;;1.90;;
35679;SDS011;21803;53.586;10.040;2023-06-26T14:24:50;2.20;;;1.60;;
35679;SDS011;21803;53.586;10.040;2023-06-26T14:27:15;2.40;;;1.88;;
35679;SDS011;21803;53.586;10.040;2023-06-26T14:29:41;2.40;;;1.80;;
35679;SDS011;21803;53.586;10.040;2023-06-26T14:32:07;1.92;;;1.75;;
35679;SDS011;21803;53.586;10.040;2023-06-26T14:34:32;1.92;;;1.52;;
35679;SDS011;21803;53.586;10.040;2023-06-26T14:36:58;2.22;;;1.60;;
35679;SDS011;21803;53.586;10.040;2023-06-26T14:39:24;2.22;;;1.60;;
35679;SDS011;21803;53.586;10.040;2023-06-26T14:41:49;2.65;;;1.77;;
35679;SDS011;21803;53.586;10.040;2023-06-26T14:44:15;2.22;;;1.60;;
35679;SDS011;21803;53.586;10.040;2023-06-26T14:46:41;1.90;;;1.48;;
35679;SDS011;21803;53.586;10.040;2023-06-26T14:49:07;1.88;;;1.65;;
35679;SDS011;21803;53.586;10.040;2023-06-26T14:51:32;1.98;;;1.45;;
35679;SDS011;21803;53.586;10.040;2023-06-26T14:53:58;2.35;;;1.65;;
35679;SDS011;21803;53.586;10.040;2023-06-26T14:56:24;2.28;;;1.70;;
35679;SDS011;21803;53.586;10.040;2023-06-26T14:58:50;2.72;;;1.58;;
35679;SDS011;21803;53.586;10.040;2023-06-26T15:01:19;2.78;;;1.70;;
35679;SDS011;21803;53.586;10.040;2023-06-26T15:03:45;1.90;;;1.35;;
35679;SDS011;21803;53.586;10.040;2023-06-26T15:06:11;1.95;;;1.50;;
35679;SDS011;21803;53.586;10.040;2023-06-26T15:08:37;2.95;;;1.55;;
35679;SDS011;21803;53.586;10.040;2023-06-26T15:11:02;1.77;;;1.33;;
35679;SDS011;21803;53.586;10.040;2023-06-26T15:13:28;1.63;;;1.35;;
35679;SDS011;21803;53.586;10.040;2023-06-26T15:15:53;2.45;;;1.52;;
35679;SDS011;21803;53.586;10.040;2023-06-26T15:18:19;2.65;;;1.40;;
35679;SDS011;21803;53.586;10.040;2023-06-26T15:20:45;1.92;;;1.55;;
35679;SDS011;21803;53.586;10.040;2023-06-26T15:23:10;1.90;;;1.40;;
35679;SDS011;21803;53.586;10.040;2023-06-26T15:25:36;1.85;;;1.40;;
35679;SDS011;21803;53.586;10.040;2023-06-26T15:28:05;1.55;;;1.30;;
35679;SDS011;21803;53.586;10.040;2023-06-26T15:30:31;1.92;;;1.45;;
35679;SDS011;21803;53.586;10.040;2023-06-26T15:32:57;2.38;;;1.25;;
35679;SDS011;21803;53.586;10.040;2023-06-26T15:35:22;2.08;;;1.40;;
35679;SDS011;21803;53.586;10.040;2023-06-26T15:37:48;1.80;;;1.35;;
35679;SDS011;21803;53.586;10.040;2023-06-26T15:40:14;2.25;;;1.50;;
35679;SDS011;21803;53.586;10.040;2023-06-26T15:42:50;3.47;;;1.38;;
35679;SDS011;21803;53.586;10.040;2023-06-26T15:45:17;2.00;;;1.40;;
35679;SDS011;21803;53.586;10.040;2023-06-26T15:47:43;1.45;;;1.15;;
35679;SDS011;21803;53.586;10.040;2023-06-26T15:50:09;2.00;;;1.42;;
35679;SDS011;21803;53.586;10.040;2023-06-26T15:52:35;1.45;;;1.05;;
35679;SDS011;21803;53.586;10.040;2023-06-26T15:55:02;2.05;;;1.50;;
35679;SDS011;21803;53.586;10.040;2023-06-26T15:57:29;1.65;;;1.33;;
35679;SDS011;21803;53.586;10.040;2023-06-26T15:59:55;2.17;;;1.35;;
35679;SDS011;21803;53.586;10.040;2023-06-26T16:02:21;1.67;;;1.20;;
35679;SDS011;21803;53.586;10.040;2023-06-26T16:04:46;1.52;;;1.20;;
35679;SDS011;21803;53.586;10.040;2023-06-26T16:07:12;1.83;;;1.30;;
35679;SDS011;21803;53.586;10.040;2023-06-26T16:09:38;1.98;;;1.50;;
35679;SDS011;21803;53.586;10.040;2023-06-26T16:12:03;2.00;;;1.30;;
35679;SDS011;21803;53.586;10.040;2023-06-26T16:14:29;2.28;;;1.30;;
35679;SDS011;21803;53.586;10.040;2023-06-26T16:16:54;2.45;;;1.33;;
35679;SDS011;21803;53.586;10.040;2023-06-26T16:19:20;1.27;;;1.10;;
35679;SDS011;21803;53.586;10.040;2023-06-26T16:21:46;1.60;;;1.33;;
35679;SDS011;21803;53.586;10.040;2023-06-26T16:24:11;1.77;;;1.20;;
35679;SDS011;21803;53.586;10.040;2023-06-26T16:26:37;1.70;;;1.35;;
35679;SDS011;21803;53.586;10.040;2023-06-26T16:29:02;1.08;;;0.98;;
35679;SDS011;21803;53.586;10.040;2023-06-26T16:31:28;2.83;;;1.20;;
35679;SDS011;21803;53.586;10.040;2023-06-26T16:33:53;1.90;;;1.42;;
35679;SDS011;21803;53.586;10.040;2023-06-26T16:36:19;2.30;;;1.10;;
35679;SDS011;21803;53.586;10.040;2023-06-26T16:38:44;1.98;;;1.33;;
35679;SDS011;21803;53.586;10.040;2023-06-26T16:41:10;2.72;;;1.30;;
35679;SDS011;21803;53.586;10.040;2023-06-26T16:43:36;2.45;;;1.30;;
35679;SDS011;21803;53.586;10.040;2023-06-26T16:46:01;1.77;;;1.30;;
35679;SDS011;21803;53.586;10.040;2023-06-26T16:48:27;2.97;;;1.55;;
35679;SDS011;21803;53.586;10.040;2023-06-26T16:50:53;2.22;;;1.25;;
35679;SDS011;21803;53.586;10.040;2023-06-26T16:53:18;1.92;;;1.38;;
35679;SDS011;21803;53.586;10.040;2023-06-26T16:55:44;2.22;;;1.20;;
35679;SDS011;21803;53.586;10.040;2023-06-26T16:58:10;1.85;;;1.40;;
35679;SDS011;21803;53.586;10.040;2023-06-26T17:00:36;1.75;;;1.20;;
35679;SDS011;21803;53.586;10.040;2023-06-26T17:03:03;3.80;;;1.30;;
35679;SDS011;21803;53.586;10.040;2023-06-26T17:05:29;1.58;;;1.20;;
35679;SDS011;21803;53.586;10.040;2023-06-26T17:07:55;3.08;;;1.40;;
35679;SDS011;21803;53.586;10.040;2023-06-26T17:10:21;4.47;;;1.10;;
35679;SDS011;21803;53.586;10.040;2023-06-26T17:12:47;1.58;;;1.20;;
35679;SDS011;21803;53.586;10.040;2023-06-26T17:15:12;1.98;;;1.50;;
35679;SDS011;21803;53.586;10.040;2023-06-26T17:17:38;2.03;;;1.27;;
35679;SDS011;21803;53.586;10.040;2023-06-26T17:20:04;2.85;;;1.15;;
35679;SDS011;21803;53.586;10.040;2023-06-26T17:22:34;4.60;;;1.40;;
35679;SDS011;21803;53.586;10.040;2023-06-26T17:25:00;2.70;;;1.33;;
35679;SDS011;21803;53.586;10.040;2023-06-26T17:27:29;3.67;;;1.30;;
35679;SDS011;21803;53.586;10.040;2023-06-26T17:29:58;1.95;;;1.25;;
35679;SDS011;21803;53.586;10.040;2023-06-26T17:32:24;2.58;;;1.13;;
35679;SDS011;21803;53.586;10.040;2023-06-26T17:34:50;1.50;;;1.15;;
35679;SDS011;21803;53.586;10.040;2023-06-26T17:37:16;2.05;;;1.20;;
35679;SDS011;21803;53.586;10.040;2023-06-26T17:39:42;2.55;;;1.30;;
35679;SDS011;21803;53.586;10.040;2023-06-26T17:42:07;2.42;;;1.30;;
35679;SDS011;21803;53.586;10.040;2023-06-26T17:44:34;2.17;;;1.23;;
35679;SDS011;21803;53.586;10.040;2023-06-26T17:47:00;2.92;;;1.60;;
35679;SDS011;21803;53.586;10.040;2023-06-26T17:49:26;1.95;;;1.10;;
35679;SDS011;21803;53.586;10.040;2023-06-26T17:51:51;1.60;;;1.20;;
35679;SDS011;21803;53.586;10.040;2023-06-26T17:54:17;1.55;;;1.15;;
35679;SDS011;21803;53.586;10.040;2023-06-26T17:56:43;2.08;;;1.10;;
35679;SDS011;21803;53.586;10.040;2023-06-26T17:59:11;2.75;;;1.30;;
35679;SDS011;21803;53.586;10.040;2023-06-26T18:01:38;2.75;;;1.27;;
35679;SDS011;21803;53.586;10.040;2023-06-26T18:04:03;2.15;;;1.38;;
35679;SDS011;21803;53.586;10.040;2023-06-26T18:06:29;1.67;;;1.13;;
35679;SDS011;21803;53.586;10.040;2023-06-26T18:08:54;3.63;;;1.45;;
35679;SDS011;21803;53.586;10.040;2023-06-26T18:11:20;2.00;;;1.10;;
35679;SDS011;21803;53.586;10.040;2023-06-26T18:13:46;2.58;;;1.00;;
35679;SDS011;21803;53.586;10.040;2023-06-26T18:16:11;2.05;;;1.13;;
35679;SDS011;21803;53.586;10.040;2023-06-26T18:18:38;1.77;;;1.20;;
35679;SDS011;21803;53.586;10.040;2023-06-26T18:21:04;1.20;;;1.10;;
35679;SDS011;21803;53.586;10.040;2023-06-26T18:23:29;2.25;;;1.50;;
35679;SDS011;21803;53.586;10.040;2023-06-26T18:25:56;1.70;;;1.17;;
35679;SDS011;21803;53.586;10.040;2023-06-26T18:28:21;1.63;;;1.23;;
35679;SDS011;21803;53.586;10.040;2023-06-26T18:30:47;1.55;;;1.15;;
35679;SDS011;21803;53.586;10.040;2023-06-26T18:33:12;2.15;;;1.25;;
35679;SDS011;21803;53.586;10.040;2023-06-26T18:35:38;1.67;;;1.00;;
35679;SDS011;21803;53.586;10.040;2023-06-26T18:38:03;3.15;;;1.40;;
35679;SDS011;21803;53.586;10.040;2023-06-26T18:40:30;2.42;;;1.02;;
35679;SDS011;21803;53.586;10.040;2023-06-26T18:42:56;2.38;;;1.10;;